createdAt,value
2019-02-21T00:00:55.079Z,9.40
2019-02-21T00:02:03.960Z,9.40
2019-02-21T00:03:04.972Z,9.40
2019-02-21T00:04:05.996Z,9.40
2019-02-21T00:05:07.228Z,9.40
2019-02-21T00:06:08.245Z,9.40
2019-02-21T00:07:09.243Z,9.40
2019-02-21T00:08:10.300Z,9.40
2019-02-21T00:09:11.356Z,9.30
2019-02-21T00:10:12.413Z,9.30
2019-02-21T00:11:16.444Z,9.30
2019-02-21T00:12:17.580Z,9.10
2019-02-21T00:13:18.606Z,9.20
2019-02-21T00:14:19.636Z,9.20
2019-02-21T00:15:20.652Z,9.20
2019-02-21T00:16:21.669Z,9.20
2019-02-21T00:17:22.686Z,9.20
2019-02-21T00:18:23.702Z,9.20
2019-02-21T00:19:24.721Z,9.20
2019-02-21T00:20:26.003Z,9.20
2019-02-21T00:21:27.116Z,9.20
2019-02-21T00:22:28.145Z,9.20
2019-02-21T00:23:29.152Z,9.20
2019-02-21T00:24:30.171Z,9.20
2019-02-21T00:25:31.197Z,9.20
2019-02-21T00:26:32.304Z,9.20
2019-02-21T00:27:33.370Z,9.20
2019-02-21T00:28:34.474Z,9.20
2019-02-21T00:29:35.506Z,9.20
2019-02-21T00:30:36.527Z,9.20
2019-02-21T00:31:39.904Z,9.20
2019-02-21T00:32:40.723Z,9.20
2019-02-21T00:33:41.749Z,9.20
2019-02-21T00:34:42.769Z,9.20
2019-02-21T00:35:43.788Z,9.20
2019-02-21T00:36:44.905Z,9.20
2019-02-21T00:37:45.922Z,9.20
2019-02-21T00:38:46.936Z,9.10
2019-02-21T00:39:47.977Z,9.20
2019-02-21T00:40:49.068Z,9.10
2019-02-21T00:41:50.096Z,9.10
2019-02-21T00:42:51.174Z,9.10
2019-02-21T00:43:52.194Z,9.10
2019-02-21T00:44:53.224Z,9.10
2019-02-21T00:45:54.256Z,9.10
2019-02-21T00:46:55.259Z,9.10
2019-02-21T00:47:56.376Z,9.10
2019-02-21T00:48:57.505Z,9.10
2019-02-21T00:49:58.525Z,9.10
2019-02-21T00:50:59.569Z,9.10
2019-02-21T00:52:02.660Z,9.10
2019-02-21T00:53:03.511Z,9.10
2019-02-21T00:54:04.528Z,9.00
2019-02-21T00:55:05.644Z,9.10
2019-02-21T00:56:06.661Z,9.00
2019-02-21T00:57:07.669Z,9.00
2019-02-21T00:58:08.688Z,9.00
2019-02-21T00:59:09.730Z,9.00
2019-02-21T01:00:11.848Z,9.00
2019-02-21T01:01:12.873Z,9.00
2019-02-21T01:02:13.903Z,8.90
2019-02-21T01:03:14.925Z,8.90
2019-02-21T01:04:15.948Z,8.90
2019-02-21T01:05:16.981Z,8.90
2019-02-21T01:06:17.996Z,8.90
2019-02-21T01:07:19.014Z,8.90
2019-02-21T01:08:20.040Z,8.90
2019-02-21T01:09:21.082Z,8.90
2019-02-21T01:10:22.104Z,8.80
2019-02-21T01:11:23.120Z,8.90
2019-02-21T01:12:24.148Z,8.80
2019-02-21T01:13:25.436Z,8.90
2019-02-21T01:14:26.464Z,8.80
2019-02-21T01:15:27.487Z,8.90
2019-02-21T01:16:28.504Z,8.80
2019-02-21T01:17:29.536Z,8.80
2019-02-21T01:18:30.549Z,8.80
2019-02-21T01:19:31.583Z,8.80
2019-02-21T01:20:32.605Z,8.80
2019-02-21T01:21:33.650Z,8.80
2019-02-21T01:22:34.792Z,8.80
2019-02-21T01:23:35.796Z,8.80
2019-02-21T01:24:36.941Z,8.70
2019-02-21T01:25:37.960Z,8.70
2019-02-21T01:26:38.985Z,8.70
2019-02-21T01:27:40.000Z,8.70
2019-02-21T01:28:41.334Z,8.70
2019-02-21T01:29:42.360Z,8.70
2019-02-21T01:30:43.492Z,8.70
2019-02-21T01:31:44.500Z,8.70
2019-02-21T01:32:45.621Z,8.70
2019-02-21T01:33:46.644Z,8.70
2019-02-21T01:34:47.678Z,8.70
2019-02-21T01:35:48.697Z,8.60
2019-02-21T01:36:49.715Z,8.70
2019-02-21T01:37:50.740Z,8.70
2019-02-21T01:38:51.765Z,8.70
2019-02-21T01:39:52.792Z,8.60
2019-02-21T01:40:53.816Z,8.60
2019-02-21T01:41:54.832Z,8.60
2019-02-21T01:42:56.144Z,8.60
2019-02-21T01:43:57.169Z,8.60
2019-02-21T01:44:58.198Z,8.60
2019-02-21T01:45:59.211Z,8.60
2019-02-21T01:47:00.241Z,8.60
2019-02-21T01:48:01.256Z,8.60
2019-02-21T01:49:02.484Z,8.60
2019-02-21T01:50:05.756Z,8.50
2019-02-21T01:51:06.874Z,8.50
2019-02-21T01:52:07.895Z,8.50
2019-02-21T01:53:08.919Z,8.50
2019-02-21T01:54:10.049Z,8.50
2019-02-21T01:55:11.117Z,8.50
2019-02-21T01:56:12.144Z,8.50
2019-02-21T01:57:13.207Z,8.50
2019-02-21T01:58:15.116Z,8.40
2019-02-21T01:59:16.128Z,8.40
2019-02-21T02:00:17.153Z,8.40
2019-02-21T02:01:18.196Z,8.40
2019-02-21T02:02:19.474Z,8.40
2019-02-21T02:03:20.587Z,8.40
2019-02-21T02:04:21.672Z,8.40
2019-02-21T02:05:22.820Z,8.40
2019-02-21T02:06:23.973Z,8.40
2019-02-21T02:07:25.176Z,8.40
2019-02-21T02:08:26.198Z,8.40
2019-02-21T02:09:27.208Z,8.40
2019-02-21T02:10:28.474Z,8.30
2019-02-21T02:11:29.817Z,8.30
2019-02-21T02:12:30.843Z,8.30
2019-02-21T02:13:31.860Z,8.40
2019-02-21T02:14:32.868Z,8.30
2019-02-21T02:15:33.906Z,8.30
2019-02-21T02:16:34.924Z,8.30
2019-02-21T02:17:35.948Z,8.30
2019-02-21T02:18:37.171Z,8.30
2019-02-21T02:19:38.187Z,8.30
2019-02-21T02:20:39.216Z,8.30
2019-02-21T02:21:40.249Z,8.30
2019-02-21T02:22:41.413Z,8.30
2019-02-21T02:23:42.695Z,8.20
2019-02-21T02:24:43.716Z,8.20
2019-02-21T02:25:44.736Z,8.20
2019-02-21T02:26:45.756Z,8.20
2019-02-21T02:27:47.022Z,8.20
2019-02-21T02:28:48.033Z,8.20
2019-02-21T02:29:49.040Z,8.20
2019-02-21T02:30:50.067Z,8.20
2019-02-21T02:31:51.083Z,8.10
2019-02-21T02:32:52.101Z,8.10
2019-02-21T02:33:53.166Z,8.10
2019-02-21T02:34:54.245Z,8.10
2019-02-21T02:35:55.269Z,8.10
2019-02-21T02:36:56.385Z,8.10
2019-02-21T02:37:57.408Z,8.20
2019-02-21T02:38:58.520Z,8.10
2019-02-21T02:39:59.647Z,8.10
2019-02-21T02:41:00.680Z,8.10
2019-02-21T02:42:01.688Z,8.10
2019-02-21T02:43:02.695Z,8.10
2019-02-21T02:44:04.024Z,8.10
2019-02-21T02:45:05.648Z,8.10
2019-02-21T02:46:06.689Z,8.00
2019-02-21T02:47:07.692Z,8.00
2019-02-21T02:48:08.702Z,8.00
2019-02-21T02:49:09.722Z,8.00
2019-02-21T02:50:10.748Z,8.00
2019-02-21T02:51:11.769Z,8.00
2019-02-21T02:52:12.789Z,8.00
2019-02-21T02:53:13.793Z,8.00
2019-02-21T02:54:14.822Z,8.00
2019-02-21T02:55:15.828Z,8.00
2019-02-21T02:56:17.036Z,8.00
2019-02-21T02:57:18.111Z,8.00
2019-02-21T02:58:19.112Z,8.00
2019-02-21T02:59:20.125Z,8.10
2019-02-21T03:00:21.140Z,8.00
2019-02-21T03:01:33.978Z,8.00
2019-02-21T03:02:25.095Z,8.00
2019-02-21T03:03:26.131Z,8.00
2019-02-21T03:04:27.216Z,8.00
2019-02-21T03:05:28.384Z,8.00
2019-02-21T03:06:29.405Z,8.00
2019-02-21T03:07:30.416Z,8.00
2019-02-21T03:08:31.431Z,8.00
2019-02-21T03:09:32.451Z,7.90
2019-02-21T03:10:33.478Z,7.90
2019-02-21T03:11:34.573Z,7.90
2019-02-21T03:12:35.632Z,8.00
2019-02-21T03:13:36.663Z,8.00
2019-02-21T03:14:37.776Z,8.00
2019-02-21T03:15:38.868Z,7.90
2019-02-21T03:16:39.888Z,8.00
2019-02-21T03:17:40.896Z,8.00
2019-02-21T03:18:41.912Z,8.00
2019-02-21T03:19:42.947Z,7.90
2019-02-21T03:20:43.963Z,7.90
2019-02-21T03:21:44.993Z,7.90
2019-02-21T03:22:46.082Z,7.80
2019-02-21T03:23:47.140Z,7.80
2019-02-21T03:24:48.150Z,7.80
2019-02-21T03:25:49.162Z,7.80
2019-02-21T03:26:50.184Z,7.80
2019-02-21T03:27:51.204Z,7.70
2019-02-21T03:28:52.213Z,7.70
2019-02-21T03:29:53.224Z,7.70
2019-02-21T03:30:54.241Z,7.70
2019-02-21T03:31:56.255Z,7.70
2019-02-21T03:32:57.586Z,7.70
2019-02-21T03:33:58.605Z,7.70
2019-02-21T03:34:59.621Z,7.70
2019-02-21T03:36:00.643Z,7.80
2019-02-21T03:37:01.659Z,7.80
2019-02-21T03:38:02.685Z,7.80
2019-02-21T03:39:05.909Z,7.80
2019-02-21T03:40:08.677Z,7.80
2019-02-21T03:41:09.805Z,7.80
2019-02-21T03:42:10.845Z,7.80
2019-02-21T03:43:11.856Z,7.90
2019-02-21T03:44:12.875Z,7.80
2019-02-21T03:45:14.118Z,7.80
2019-02-21T03:46:15.224Z,7.80
2019-02-21T03:47:16.315Z,7.80
2019-02-21T03:48:17.358Z,7.70
2019-02-21T03:49:18.554Z,7.70
2019-02-21T03:50:19.644Z,7.70
2019-02-21T03:51:20.697Z,7.70
2019-02-21T03:52:21.712Z,7.60
2019-02-21T03:53:22.728Z,7.60
2019-02-21T03:54:23.749Z,7.60
2019-02-21T03:55:24.856Z,7.60
2019-02-21T03:56:25.890Z,7.60
2019-02-21T03:57:26.895Z,7.60
2019-02-21T03:58:27.920Z,7.60
2019-02-21T03:59:28.953Z,7.60
2019-02-21T04:00:29.980Z,7.50
2019-02-21T04:01:31.102Z,7.50
2019-02-21T04:02:32.220Z,7.40
2019-02-21T04:03:33.344Z,7.40
2019-02-21T04:04:34.353Z,7.40
2019-02-21T04:05:35.600Z,7.30
2019-02-21T04:06:36.717Z,7.30
2019-02-21T04:07:37.754Z,7.30
2019-02-21T04:08:38.770Z,7.30
2019-02-21T04:09:40.020Z,7.30
2019-02-21T04:10:41.359Z,7.30
2019-02-21T04:11:42.388Z,7.30
2019-02-21T04:12:43.433Z,7.30
2019-02-21T04:13:44.557Z,7.30
2019-02-21T04:14:46.391Z,7.30
2019-02-21T04:15:47.408Z,7.20
2019-02-21T04:16:48.441Z,7.20
2019-02-21T04:17:49.464Z,7.20
2019-02-21T04:18:50.490Z,7.20
2019-02-21T04:19:51.501Z,7.20
2019-02-21T04:20:52.524Z,7.20
2019-02-21T04:21:53.540Z,7.20
2019-02-21T04:22:54.564Z,7.30
2019-02-21T04:23:55.592Z,7.30
2019-02-21T04:24:56.606Z,7.30
2019-02-21T04:25:57.622Z,7.30
2019-02-21T04:26:58.660Z,7.30
2019-02-21T04:27:59.693Z,7.30
2019-02-21T04:29:00.709Z,7.20
2019-02-21T04:30:02.140Z,7.20
2019-02-21T04:31:03.161Z,7.30
2019-02-21T04:32:04.199Z,7.30
2019-02-21T04:33:05.207Z,7.30
2019-02-21T04:34:06.227Z,7.30
2019-02-21T04:35:07.250Z,7.30
2019-02-21T04:36:08.352Z,7.40
2019-02-21T04:37:09.389Z,7.40
2019-02-21T04:38:10.434Z,7.40
2019-02-21T04:39:11.455Z,7.40
2019-02-21T04:40:12.468Z,7.40
2019-02-21T04:41:13.475Z,7.30
2019-02-21T04:42:14.505Z,7.40
2019-02-21T04:43:15.526Z,7.40
2019-02-21T04:44:16.541Z,7.30
2019-02-21T04:45:17.561Z,7.30
2019-02-21T04:46:18.594Z,7.20
2019-02-21T04:47:19.842Z,7.30
2019-02-21T04:48:20.889Z,7.30
2019-02-21T04:49:21.911Z,7.30
2019-02-21T04:50:22.930Z,7.30
2019-02-21T04:51:23.934Z,7.30
2019-02-21T04:52:24.965Z,7.30
2019-02-21T04:53:25.985Z,7.30
2019-02-21T04:54:27.001Z,7.30
2019-02-21T04:55:28.011Z,7.20
2019-02-21T04:56:29.030Z,7.30
2019-02-21T04:57:30.304Z,7.30
2019-02-21T04:58:31.321Z,7.20
2019-02-21T04:59:32.339Z,7.30
2019-02-21T05:00:33.363Z,7.20
2019-02-21T05:01:34.376Z,7.20
2019-02-21T05:02:35.405Z,7.20
2019-02-21T05:03:36.425Z,7.10
2019-02-21T05:04:37.497Z,7.10
2019-02-21T05:05:38.583Z,7.10
2019-02-21T05:06:39.632Z,7.00
2019-02-21T05:07:40.682Z,7.10
2019-02-21T05:08:41.803Z,7.10
2019-02-21T05:09:42.833Z,7.10
2019-02-21T05:10:43.864Z,7.10
2019-02-21T05:11:44.872Z,7.00
2019-02-21T05:12:46.200Z,7.00
2019-02-21T05:13:47.229Z,7.00
2019-02-21T05:14:48.248Z,7.00
2019-02-21T05:15:49.255Z,7.00
2019-02-21T05:16:50.285Z,6.90
2019-02-21T05:17:51.309Z,7.00
2019-02-21T05:18:52.336Z,6.80
2019-02-21T05:19:53.349Z,6.90
2019-02-21T05:20:54.415Z,6.90
2019-02-21T05:21:55.492Z,6.90
2019-02-21T05:22:56.560Z,6.90
2019-02-21T05:23:57.636Z,6.90
2019-02-21T05:24:58.697Z,6.90
2019-02-21T05:25:59.704Z,6.90
2019-02-21T05:27:02.646Z,6.90
2019-02-21T05:28:05.572Z,6.90
2019-02-21T05:29:08.480Z,6.90
2019-02-21T05:30:11.406Z,7.00
2019-02-21T05:31:14.429Z,7.00
2019-02-21T05:32:41.101Z,7.00
2019-02-21T05:33:48.836Z,7.00
2019-02-21T05:35:07.028Z,7.00
2019-02-21T05:36:12.952Z,7.00
2019-02-21T05:37:15.882Z,7.00
2019-02-21T05:38:30.774Z,7.00
2019-02-21T05:39:33.693Z,7.10
2019-02-21T05:40:41.955Z,7.10
2019-02-21T05:41:50.045Z,7.10
2019-02-21T05:42:55.993Z,7.20
2019-02-21T05:44:04.697Z,7.20
2019-02-21T05:45:11.351Z,7.20
2019-02-21T05:46:20.138Z,7.20
2019-02-21T05:47:23.170Z,7.20
2019-02-21T05:48:40.988Z,7.20
2019-02-21T05:49:43.913Z,7.20
2019-02-21T05:51:01.664Z,7.10
2019-02-21T05:52:16.248Z,7.10
2019-02-21T05:53:37.568Z,7.10
2019-02-21T05:54:43.167Z,7.10
2019-02-21T05:55:46.107Z,7.10
2019-02-21T05:57:01.170Z,7.10
2019-02-21T05:58:04.094Z,7.00
2019-02-21T05:59:07.060Z,7.00
2019-02-21T06:00:10.167Z,7.00
2019-02-21T06:01:13.080Z,7.00
2019-02-21T06:02:16.018Z,6.90
2019-02-21T06:03:21.747Z,6.90
2019-02-21T06:04:24.666Z,6.80
2019-02-21T06:05:33.713Z,6.80
2019-02-21T06:06:39.574Z,6.80
2019-02-21T06:07:45.277Z,6.80
2019-02-21T06:08:54.017Z,6.70
2019-02-21T06:10:06.032Z,6.80
2019-02-21T06:11:17.863Z,6.80
2019-02-21T06:12:33.079Z,6.80
2019-02-21T06:13:36.609Z,6.80
2019-02-21T06:14:45.365Z,6.70
2019-02-21T06:15:54.100Z,6.70
2019-02-21T06:16:57.006Z,6.70
2019-02-21T06:18:02.701Z,6.70
2019-02-21T06:19:17.410Z,6.70
2019-02-21T06:20:33.807Z,6.70
2019-02-21T06:21:42.709Z,6.60
2019-02-21T06:22:48.200Z,6.60
2019-02-21T06:23:51.128Z,6.60
2019-02-21T06:24:56.611Z,6.60
2019-02-21T06:25:59.566Z,6.60
2019-02-21T06:27:08.352Z,6.60
2019-02-21T06:28:11.293Z,6.60
2019-02-21T06:29:14.202Z,6.60
2019-02-21T06:30:17.127Z,6.60
2019-02-21T06:31:18.208Z,6.60
2019-02-21T06:32:19.258Z,6.60
2019-02-21T06:33:20.282Z,6.60
2019-02-21T06:34:21.293Z,6.60
2019-02-21T06:35:22.348Z,6.60
2019-02-21T06:36:26.093Z,6.60
2019-02-21T06:37:26.496Z,6.60
2019-02-21T06:38:27.649Z,6.60
2019-02-21T06:39:28.671Z,6.60
2019-02-21T06:40:29.693Z,6.60
2019-02-21T06:41:30.732Z,6.50
2019-02-21T06:42:31.752Z,6.50
2019-02-21T06:43:32.773Z,6.50
2019-02-21T06:44:33.812Z,6.60
2019-02-21T06:45:34.820Z,6.60
2019-02-21T06:46:35.866Z,6.60
2019-02-21T06:47:36.876Z,6.50
2019-02-21T06:48:37.907Z,6.60
2019-02-21T06:49:38.939Z,6.60
2019-02-21T06:50:39.986Z,6.60
2019-02-21T06:51:41.005Z,6.60
2019-02-21T06:52:42.016Z,6.50
2019-02-21T06:53:43.038Z,6.50
2019-02-21T06:54:44.060Z,6.50
2019-02-21T06:55:45.079Z,6.60
2019-02-21T06:56:46.092Z,6.60
2019-02-21T06:57:47.108Z,6.60
2019-02-21T06:58:48.180Z,6.60
2019-02-21T06:59:49.193Z,6.60
2019-02-21T07:00:50.213Z,6.60
2019-02-21T07:01:51.249Z,6.60
2019-02-21T07:02:54.273Z,6.60
2019-02-21T07:03:55.168Z,6.60
2019-02-21T07:04:56.784Z,6.60
2019-02-21T07:05:58.004Z,6.70
2019-02-21T07:06:59.037Z,6.60
2019-02-21T07:08:00.074Z,6.60
2019-02-21T07:09:01.096Z,6.60
2019-02-21T07:10:03.717Z,6.60
2019-02-21T07:11:06.478Z,6.70
2019-02-21T07:12:07.665Z,6.70
2019-02-21T07:13:08.682Z,6.70
2019-02-21T07:14:09.699Z,6.70
2019-02-21T07:15:10.754Z,6.60
2019-02-21T07:16:13.180Z,6.70
2019-02-21T07:17:14.380Z,6.70
2019-02-21T07:18:15.392Z,6.70
2019-02-21T07:19:18.341Z,6.70
2019-02-21T07:20:19.346Z,6.70
2019-02-21T07:21:20.365Z,6.80
2019-02-21T07:22:22.252Z,6.80
2019-02-21T07:23:24.308Z,6.80
2019-02-21T07:24:25.471Z,6.80
2019-02-21T07:25:28.433Z,6.80
2019-02-21T07:26:29.450Z,6.80
2019-02-21T07:27:30.478Z,6.90
2019-02-21T07:28:31.542Z,6.90
2019-02-21T07:29:32.652Z,6.90
2019-02-21T07:30:33.675Z,6.90
2019-02-21T07:31:34.692Z,6.90
2019-02-21T07:32:35.712Z,6.90
2019-02-21T07:33:37.033Z,7.00
2019-02-21T07:34:38.054Z,7.00
2019-02-21T07:35:39.059Z,6.90
2019-02-21T07:36:40.101Z,7.00
2019-02-21T07:37:42.339Z,6.90
2019-02-21T07:38:43.502Z,6.90
2019-02-21T07:39:44.523Z,6.90
2019-02-21T07:40:45.535Z,7.00
2019-02-21T07:41:46.556Z,7.00
2019-02-21T07:43:07.535Z,7.10
2019-02-21T07:44:12.014Z,7.10
2019-02-21T07:45:11.618Z,7.20
2019-02-21T07:46:12.780Z,7.20
2019-02-21T07:47:13.796Z,7.20
2019-02-21T07:48:14.868Z,7.20
2019-02-21T07:49:15.888Z,7.30
2019-02-21T07:50:17.036Z,7.30
2019-02-21T07:51:18.057Z,7.30
2019-02-21T07:52:19.081Z,7.30
2019-02-21T07:53:20.096Z,7.30
2019-02-21T07:54:21.121Z,7.30
2019-02-21T07:55:22.154Z,7.40
2019-02-21T07:56:23.165Z,7.40
2019-02-21T07:57:24.191Z,7.30
2019-02-21T07:58:25.199Z,7.30
2019-02-21T07:59:26.214Z,7.40
2019-02-21T08:00:27.241Z,7.40
2019-02-21T08:01:28.532Z,7.40
2019-02-21T08:02:29.630Z,7.40
2019-02-21T08:03:43.459Z,7.40
2019-02-21T08:04:33.564Z,7.40
2019-02-21T08:05:34.600Z,7.50
2019-02-21T08:06:35.623Z,7.50
2019-02-21T08:07:36.629Z,7.50
2019-02-21T08:08:37.647Z,7.60
2019-02-21T08:09:38.677Z,7.60
2019-02-21T08:10:40.018Z,7.60
2019-02-21T08:11:41.034Z,7.60
2019-02-21T08:12:42.144Z,7.70
2019-02-21T08:13:43.476Z,7.70
2019-02-21T08:14:44.503Z,7.80
2019-02-21T08:15:45.536Z,7.70
2019-02-21T08:16:46.661Z,7.80
2019-02-21T08:17:47.673Z,7.90
2019-02-21T08:18:48.689Z,7.90
2019-02-21T08:19:49.720Z,7.90
2019-02-21T08:20:50.742Z,8.00
2019-02-21T08:21:51.796Z,8.00
2019-02-21T08:22:53.008Z,8.00
2019-02-21T08:23:54.011Z,8.10
2019-02-21T08:24:56.577Z,8.10
2019-02-21T08:25:57.820Z,8.10
2019-02-21T08:26:58.908Z,8.10
2019-02-21T08:27:59.936Z,8.10
2019-02-21T08:29:00.949Z,8.20
2019-02-21T08:30:03.527Z,8.20
2019-02-21T08:31:04.736Z,8.20
2019-02-21T08:32:06.871Z,8.30
2019-02-21T08:33:10.034Z,8.30
2019-02-21T08:34:12.949Z,8.30
2019-02-21T08:35:13.968Z,8.40
2019-02-21T08:36:14.985Z,8.40
2019-02-21T08:37:15.994Z,8.40
2019-02-21T08:38:17.014Z,8.40
2019-02-21T08:39:18.029Z,8.40
2019-02-21T08:40:19.052Z,8.40
2019-02-21T08:41:20.076Z,8.40
2019-02-21T08:42:21.082Z,8.40
2019-02-21T08:43:22.110Z,8.50
2019-02-21T08:44:23.118Z,8.50
2019-02-21T08:45:24.268Z,8.50
2019-02-21T08:46:25.318Z,8.60
2019-02-21T08:47:26.629Z,8.50
2019-02-21T08:48:27.645Z,8.50
2019-02-21T08:49:28.656Z,8.50
2019-02-21T08:50:29.692Z,8.50
2019-02-21T08:51:30.720Z,8.60
2019-02-21T08:52:31.786Z,8.60
2019-02-21T08:53:32.955Z,8.60
2019-02-21T08:54:34.019Z,8.60
2019-02-21T08:55:35.118Z,8.70
2019-02-21T08:56:36.134Z,8.70
2019-02-21T08:57:37.154Z,8.70
2019-02-21T08:58:38.160Z,8.70
2019-02-21T08:59:39.169Z,8.80
2019-02-21T09:00:40.300Z,8.80
2019-02-21T09:01:41.316Z,8.80
2019-02-21T09:02:42.536Z,8.80
2019-02-21T09:03:43.648Z,8.80
2019-02-21T09:04:44.665Z,8.90
2019-02-21T09:05:45.693Z,8.90
2019-02-21T09:06:46.725Z,8.90
2019-02-21T09:07:47.777Z,8.90
2019-02-21T09:08:48.793Z,9.00
2019-02-21T09:09:49.904Z,9.10
2019-02-21T09:10:50.957Z,9.10
2019-02-21T09:11:53.788Z,9.10
2019-02-21T09:12:54.908Z,9.20
2019-02-21T09:13:56.020Z,9.20
2019-02-21T09:14:57.068Z,9.20
2019-02-21T09:15:58.091Z,9.10
2019-02-21T09:16:59.120Z,9.20
2019-02-21T09:18:00.129Z,9.20
2019-02-21T09:19:01.152Z,9.20
2019-02-21T09:20:02.791Z,9.30
2019-02-21T09:21:03.896Z,9.30
2019-02-21T09:22:04.936Z,9.30
2019-02-21T09:23:05.964Z,9.40
2019-02-21T09:24:06.980Z,9.40
2019-02-21T09:25:10.380Z,9.40
2019-02-21T09:26:11.412Z,9.50
2019-02-21T09:27:12.425Z,9.50
2019-02-21T09:28:15.712Z,9.60
2019-02-21T09:29:16.416Z,9.60
2019-02-21T09:30:17.831Z,9.60
2019-02-21T09:31:18.861Z,9.70
2019-02-21T09:32:19.885Z,9.70
2019-02-21T09:33:21.499Z,9.70
2019-02-21T09:34:22.829Z,9.80
2019-02-21T09:35:23.848Z,9.90
2019-02-21T09:36:24.896Z,10.00
2019-02-21T09:37:25.928Z,10.10
2019-02-21T09:38:26.993Z,10.20
2019-02-21T09:39:28.006Z,10.20
2019-02-21T09:40:29.023Z,10.30
2019-02-21T09:41:30.040Z,10.40
2019-02-21T09:42:31.060Z,10.40
2019-02-21T09:43:32.101Z,10.50
2019-02-21T09:44:35.745Z,10.50
2019-02-21T09:45:36.210Z,10.60
2019-02-21T09:46:37.296Z,10.60
2019-02-21T09:47:38.317Z,10.60
2019-02-21T09:48:39.365Z,10.60
2019-02-21T09:49:40.389Z,10.60
2019-02-21T09:50:41.405Z,10.60
2019-02-21T09:51:42.436Z,10.60
2019-02-21T09:52:43.457Z,10.60
2019-02-21T09:53:44.467Z,10.60
2019-02-21T09:54:47.520Z,10.60
2019-02-21T09:55:50.277Z,10.60
2019-02-21T09:56:53.008Z,10.70
2019-02-21T09:57:54.264Z,10.70
2019-02-21T09:58:55.274Z,10.70
2019-02-21T09:59:56.385Z,10.70
2019-02-21T10:00:57.401Z,10.70
2019-02-21T10:01:58.437Z,10.70
2019-02-21T10:02:59.481Z,10.80
2019-02-21T10:04:00.505Z,10.70
2019-02-21T10:05:04.983Z,10.80
2019-02-21T10:06:04.536Z,10.80
2019-02-21T10:07:05.574Z,10.80
2019-02-21T10:08:06.575Z,10.80
2019-02-21T10:09:07.584Z,10.90
2019-02-21T10:10:11.614Z,10.90
2019-02-21T10:11:12.972Z,10.90
2019-02-21T10:12:13.996Z,11.00
2019-02-21T10:13:15.034Z,11.00
2019-02-21T10:14:16.048Z,11.10
2019-02-21T10:15:17.574Z,11.20
2019-02-21T10:16:18.620Z,11.30
2019-02-21T10:17:19.671Z,11.30
2019-02-21T10:18:20.685Z,11.30
2019-02-21T10:19:21.704Z,11.40
2019-02-21T10:20:22.736Z,11.50
2019-02-21T10:21:23.747Z,11.50
2019-02-21T10:22:26.129Z,11.60
2019-02-21T10:23:27.391Z,11.70
2019-02-21T10:24:28.413Z,11.70
2019-02-21T10:25:30.832Z,11.80
2019-02-21T10:26:31.873Z,11.90
2019-02-21T10:27:33.023Z,11.90
2019-02-21T10:28:34.104Z,12.00
2019-02-21T10:29:35.112Z,12.00
2019-02-21T10:30:36.475Z,12.10
2019-02-21T10:31:37.677Z,12.00
2019-02-21T10:32:38.721Z,12.10
2019-02-21T10:33:46.852Z,12.10
2019-02-21T10:34:43.521Z,12.10
2019-02-21T10:35:45.209Z,12.10
2019-02-21T10:36:46.223Z,12.20
2019-02-21T10:37:47.511Z,12.20
2019-02-21T10:38:48.528Z,12.30
2019-02-21T10:39:49.555Z,12.30
2019-02-21T10:40:50.552Z,12.30
2019-02-21T10:41:51.572Z,12.40
2019-02-21T10:42:52.607Z,12.40
2019-02-21T10:43:53.604Z,12.50
2019-02-21T10:44:54.620Z,12.50
2019-02-21T10:45:55.944Z,12.50
2019-02-21T10:46:56.968Z,12.60
2019-02-21T10:47:58.017Z,12.70
2019-02-21T10:48:59.029Z,12.70
2019-02-21T10:50:00.037Z,12.80
2019-02-21T10:51:01.049Z,12.80
2019-02-21T10:52:02.081Z,12.90
2019-02-21T10:53:03.100Z,12.90
2019-02-21T10:54:04.114Z,12.90
2019-02-21T10:55:05.690Z,13.00
2019-02-21T10:56:06.781Z,13.00
2019-02-21T10:57:07.821Z,13.00
2019-02-21T10:58:08.942Z,13.10
2019-02-21T10:59:10.040Z,13.10
2019-02-21T11:00:17.669Z,13.20
2019-02-21T11:01:18.697Z,13.20
2019-02-21T11:02:19.706Z,13.30
2019-02-21T11:03:20.740Z,13.40
2019-02-21T11:04:21.757Z,13.40
2019-02-21T11:05:22.763Z,13.50
2019-02-21T11:06:23.888Z,13.50
2019-02-21T11:07:24.937Z,13.60
2019-02-21T11:08:25.961Z,13.60
2019-02-21T11:09:26.981Z,13.70
2019-02-21T11:10:28.814Z,13.70
2019-02-21T11:11:29.844Z,13.70
2019-02-21T11:12:30.875Z,13.70
2019-02-21T11:13:32.002Z,13.70
2019-02-21T11:14:33.014Z,13.70
2019-02-21T11:15:34.114Z,13.70
2019-02-21T11:16:35.127Z,13.70
2019-02-21T11:17:36.151Z,13.70
2019-02-21T11:18:37.173Z,13.70
2019-02-21T11:19:38.185Z,13.70
2019-02-21T11:20:39.200Z,13.70
2019-02-21T11:21:40.204Z,13.80
2019-02-21T11:22:41.337Z,13.80
2019-02-21T11:23:42.348Z,13.80
2019-02-21T11:24:43.513Z,13.80
2019-02-21T11:25:44.532Z,13.80
2019-02-21T11:26:45.564Z,13.80
2019-02-21T11:27:46.649Z,13.80
2019-02-21T11:28:47.776Z,13.70
2019-02-21T11:29:48.805Z,13.70
2019-02-21T11:30:49.941Z,13.70
2019-02-21T11:31:50.985Z,13.70
2019-02-21T11:32:52.015Z,13.80
2019-02-21T11:33:53.061Z,13.80
2019-02-21T11:35:03.524Z,13.90
2019-02-21T11:35:57.039Z,14.00
2019-02-21T11:36:58.123Z,14.00
2019-02-21T11:37:59.185Z,14.00
2019-02-21T11:39:00.193Z,14.10
2019-02-21T11:40:01.321Z,14.10
2019-02-21T11:41:02.432Z,14.20
2019-02-21T11:42:03.553Z,14.20
2019-02-21T11:43:04.575Z,14.30
2019-02-21T11:44:05.600Z,14.30
2019-02-21T11:45:09.513Z,14.30
2019-02-21T11:46:10.532Z,14.40
2019-02-21T11:47:11.559Z,14.40
2019-02-21T11:48:12.581Z,14.40
2019-02-21T11:49:13.605Z,14.50
2019-02-21T11:50:16.116Z,14.60
2019-02-21T11:51:17.123Z,14.60
2019-02-21T11:52:18.147Z,14.60
2019-02-21T11:53:19.168Z,14.60
2019-02-21T11:54:26.844Z,14.70
2019-02-21T11:55:25.002Z,14.70
2019-02-21T11:56:26.029Z,14.70
2019-02-21T11:57:27.045Z,14.70
2019-02-21T11:58:28.084Z,14.80
2019-02-21T11:59:29.128Z,14.80
2019-02-21T12:00:30.345Z,14.80
2019-02-21T12:01:31.368Z,14.80
2019-02-21T12:02:38.865Z,14.90
2019-02-21T12:03:35.304Z,14.90
2019-02-21T12:04:37.604Z,14.90
2019-02-21T12:05:38.620Z,15.00
2019-02-21T12:06:39.634Z,15.00
2019-02-21T12:07:40.652Z,15.10
2019-02-21T12:08:41.679Z,15.20
2019-02-21T12:09:42.684Z,15.20
2019-02-21T12:10:43.713Z,15.30
2019-02-21T12:11:44.736Z,15.30
2019-02-21T12:12:45.904Z,15.40
2019-02-21T12:13:47.086Z,15.40
2019-02-21T12:14:48.104Z,15.40
2019-02-21T12:15:49.113Z,15.40
2019-02-21T12:16:50.264Z,15.40
2019-02-21T12:17:51.272Z,15.40
2019-02-21T12:18:52.342Z,15.40
2019-02-21T12:19:53.415Z,15.40
2019-02-21T12:20:54.432Z,15.50
2019-02-21T12:21:59.071Z,15.50
2019-02-21T12:22:58.376Z,15.60
2019-02-21T12:23:59.696Z,15.70
2019-02-21T12:25:00.704Z,15.70
2019-02-21T12:26:01.720Z,15.80
2019-02-21T12:27:02.738Z,15.80
2019-02-21T12:28:03.752Z,15.80
2019-02-21T12:29:04.780Z,15.80
2019-02-21T12:30:14.843Z,15.80
2019-02-21T12:31:15.856Z,15.80
2019-02-21T12:32:16.869Z,15.80
2019-02-21T12:33:17.892Z,15.80
2019-02-21T12:34:18.933Z,15.90
2019-02-21T12:35:29.156Z,15.90
2019-02-21T12:36:22.877Z,15.90
2019-02-21T12:37:23.884Z,16.00
2019-02-21T12:38:24.898Z,16.00
2019-02-21T12:39:25.930Z,16.10
2019-02-21T12:40:26.957Z,16.10
2019-02-21T12:41:27.986Z,16.10
2019-02-21T12:42:28.996Z,16.10
2019-02-21T12:43:30.104Z,16.10
2019-02-21T12:44:31.125Z,16.10
2019-02-21T12:45:32.140Z,16.20
2019-02-21T12:46:33.174Z,16.20
2019-02-21T12:47:34.310Z,16.30
2019-02-21T12:48:35.436Z,16.20
2019-02-21T12:49:36.461Z,16.20
2019-02-21T12:50:44.386Z,16.20
2019-02-21T12:51:40.473Z,16.20
2019-02-21T12:52:41.556Z,16.10
2019-02-21T12:53:42.571Z,16.10
2019-02-21T12:54:43.597Z,16.10
2019-02-21T12:55:44.633Z,16.10
2019-02-21T12:56:45.652Z,16.10
2019-02-21T12:57:46.674Z,16.10
2019-02-21T12:58:47.686Z,16.10
2019-02-21T12:59:48.716Z,16.10
2019-02-21T13:00:49.728Z,16.10
2019-02-21T13:01:56.697Z,16.10
2019-02-21T13:02:57.756Z,16.10
2019-02-21T13:03:58.777Z,16.10
2019-02-21T13:04:59.798Z,16.10
2019-02-21T13:06:00.867Z,16.20
2019-02-21T13:07:01.957Z,16.20
2019-02-21T13:08:03.054Z,16.20
2019-02-21T13:09:04.368Z,16.20
2019-02-21T13:10:11.565Z,16.20
2019-02-21T13:11:12.592Z,16.30
2019-02-21T13:12:13.630Z,16.30
2019-02-21T13:13:14.644Z,16.30
2019-02-21T13:14:15.660Z,16.30
2019-02-21T13:15:16.681Z,16.30
2019-02-21T13:16:17.811Z,16.30
2019-02-21T13:17:18.830Z,16.30
2019-02-21T13:18:19.873Z,16.30
2019-02-21T13:19:20.880Z,16.40
2019-02-21T13:20:21.910Z,16.30
2019-02-21T13:21:22.929Z,16.30
2019-02-21T13:22:23.935Z,16.30
2019-02-21T13:23:24.953Z,16.30
2019-02-21T13:24:25.979Z,16.40
2019-02-21T13:25:27.012Z,16.40
2019-02-21T13:26:28.020Z,16.40
2019-02-21T13:27:29.045Z,16.40
2019-02-21T13:28:30.054Z,16.40
2019-02-21T13:29:31.062Z,16.40
2019-02-21T13:30:32.098Z,16.40
2019-02-21T13:31:33.101Z,16.50
2019-02-21T13:32:34.122Z,16.50
2019-02-21T13:33:35.199Z,16.50